Time;durP1;ratioP1;P1;durP2;ratioP2;P2;SDS_P1;SDS_P2;PMS_P1;PMS_P2;Temp;Humidity;BMP_temperature;BMP_pressure;BME280_temperature;BME280_humidity;BME280_pressure;Samples;Min_cycle;Max_cycle;Signal;HPM_P1;HPM_P2
2021/12/06 00:01:05;;;;;;;6.23;1.40;;;23.30;99.90;;;;;;5135398;27;20019;-70
2021/12/06 00:03:51;;;;;;;6.10;1.02;;;23.90;99.90;;;;;;5134513;27;20047;-71
2021/12/06 00:06:21;;;;;;;6.03;1.23;;;24.30;99.90;;;;;;5135958;27;20015;-73
2021/12/06 00:08:49;;;;;;;6.53;1.02;;;24.60;99.90;;;;;;5136068;27;20098;-70
2021/12/06 00:11:17;;;;;;;7.72;1.30;;;24.40;99.90;;;;;;5135306;27;20037;-72
2021/12/06 00:13:49;;;;;;;7.45;1.80;;;24.00;99.90;;;;;;5135481;27;20084;-71
2021/12/06 00:16:21;;;;;;;7.75;1.30;;;23.40;99.90;;;;;;5135751;27;20015;-70
2021/12/06 00:18:50;;;;;;;9.13;1.25;;;23.30;99.90;;;;;;5135098;27;20030;-70
2021/12/06 00:21:17;;;;;;;6.00;1.17;;;23.40;99.90;;;;;;5134224;27;20083;-71
2021/12/06 00:23:45;;;;;;;9.40;1.27;;;23.80;99.90;;;;;;5135341;27;20023;-69
2021/12/06 00:26:12;;;;;;;12.50;1.75;;;23.50;99.90;;;;;;5135677;27;20015;-69
2021/12/06 00:28:42;;;;;;;6.93;1.20;;;23.40;99.90;;;;;;5135265;27;20043;-70
2021/12/06 00:31:11;;;;;;;9.20;1.75;;;23.40;99.90;;;;;;5135323;27;20020;-70
2021/12/06 00:33:39;;;;;;;6.80;1.23;;;23.00;99.90;;;;;;5135222;27;20027;-71
2021/12/06 00:36:15;;;;;;;5.97;1.00;;;23.00;99.90;;;;;;5134610;27;20058;-71
2021/12/06 00:38:47;;;;;;;7.38;1.48;;;22.70;99.90;;;;;;5135257;27;20476;-71
2021/12/06 00:41:15;;;;;;;7.55;1.48;;;22.50;99.90;;;;;;5135180;27;20023;-71
2021/12/06 00:43:42;;;;;;;8.27;1.15;;;22.40;99.90;;;;;;5134809;27;20494;-71
2021/12/06 00:46:09;;;;;;;8.23;1.20;;;22.60;99.90;;;;;;5134667;27;20099;-71
2021/12/06 00:48:37;;;;;;;7.72;1.55;;;22.70;99.90;;;;;;5134580;27;20540;-71
2021/12/06 00:51:04;;;;;;;9.18;1.45;;;22.50;99.90;;;;;;5134998;27;20015;-71
2021/12/06 00:53:32;;;;;;;9.18;1.70;;;22.40;99.90;;;;;;5133341;27;20027;-70
2021/12/06 00:55:59;;;;;;;8.02;1.20;;;22.50;99.90;;;;;;5134709;27;20047;-70
2021/12/06 00:58:26;;;;;;;6.93;1.23;;;22.50;99.90;;;;;;5134573;27;20527;-72
2021/12/06 01:00:55;;;;;;;7.70;1.13;;;22.30;99.90;;;;;;5134387;28;20019;-72
2021/12/06 01:03:31;;;;;;;8.73;1.20;;;22.60;99.90;;;;;;5134916;28;20046;-71
2021/12/06 01:05:59;;;;;;;7.13;1.15;;;23.10;99.90;;;;;;5134060;28;20027;-72
2021/12/06 01:08:26;;;;;;;6.80;1.15;;;23.40;99.90;;;;;;5134840;28;20024;-72
2021/12/06 01:10:54;;;;;;;5.88;0.98;;;23.20;99.90;;;;;;5133083;28;20491;-71
2021/12/06 01:13:23;;;;;;;7.95;1.30;;;23.00;99.90;;;;;;5134318;28;20466;-72
2021/12/06 01:15:51;;;;;;;7.88;1.30;;;23.10;99.90;;;;;;5133210;28;20443;-71
2021/12/06 01:18:20;;;;;;;7.00;0.95;;;23.20;99.90;;;;;;5134569;28;20027;-72
2021/12/06 01:21:01;;;;;;;11.25;1.48;;;23.10;99.90;;;;;;5134138;28;20106;-71
2021/12/06 01:23:41;;;;;;;6.63;1.17;;;23.50;99.90;;;;;;5133059;28;20059;-71
2021/12/06 01:26:33;;;;;;;8.98;1.33;;;23.40;99.90;;;;;;5134330;28;20019;-71
2021/12/06 01:31:50;;;;;;;6.22;0.90;;;23.70;99.90;;;;;;5134313;28;20022;-70
2021/12/06 01:39:54;;;;;;;7.40;1.20;;;24.60;99.90;;;;;;5134929;28;20385;-71
2021/12/06 01:42:22;;;;;;;9.75;1.83;;;24.80;99.90;;;;;;5134467;28;20083;-71
2021/12/06 01:44:56;;;;;;;7.22;1.55;;;25.10;99.90;;;;;;5134618;28;20384;-71
2021/12/06 01:47:37;;;;;;;7.47;1.75;;;25.00;99.90;;;;;;5134419;28;20019;-71
2021/12/06 01:50:13;;;;;;;6.85;1.30;;;24.60;99.90;;;;;;5136506;27;20015;-70
2021/12/06 01:52:49;;;;;;;6.50;1.23;;;24.50;99.90;;;;;;5138385;27;20019;-71
2021/12/06 01:55:26;;;;;;;5.18;1.17;;;24.40;99.90;;;;;;5138061;27;20055;-72
2021/12/06 01:57:57;;;;;;;5.43;1.17;;;24.20;99.90;;;;;;5138120;27;20083;-71
2021/12/06 02:00:30;;;;;;;7.22;1.10;;;23.80;99.90;;;;;;5138236;27;20476;-72
2021/12/06 02:02:58;;;;;;;8.15;1.15;;;23.60;99.90;;;;;;5137646;27;20046;-71
2021/12/06 02:05:25;;;;;;;7.40;1.02;;;23.20;99.90;;;;;;5136497;27;20031;-71
2021/12/06 02:07:53;;;;;;;7.10;1.20;;;23.20;99.90;;;;;;5137196;27;20025;-71
2021/12/06 02:10:21;;;;;;;6.40;1.10;;;23.10;99.90;;;;;;5137680;27;20020;-71
2021/12/06 02:12:51;;;;;;;3.72;1.08;;;22.90;99.90;;;;;;5137684;27;20019;-72
2021/12/06 02:17:58;;;;;;;5.32;1.00;;;22.50;99.90;;;;;;5137788;27;20041;-71
2021/12/06 02:20:28;;;;;;;8.30;1.55;;;22.40;99.90;;;;;;5136097;27;20056;-71
2021/12/06 02:22:56;;;;;;;;;;;22.30;99.90;;;;;;5136459;27;20019;-71
2021/12/06 02:25:23;;;;;;;6.35;1.00;;;22.30;99.90;;;;;;5135725;27;19903;-71
2021/12/06 02:27:52;;;;;;;5.40;1.02;;;22.60;99.90;;;;;;5135763;27;20484;-71
2021/12/06 02:30:20;;;;;;;6.38;0.82;;;22.80;99.90;;;;;;5137223;27;20023;-71
2021/12/06 02:32:50;;;;;;;4.97;0.90;;;22.70;99.90;;;;;;5137111;27;20026;-72
2021/12/06 02:35:21;;;;;;;6.53;1.23;;;22.70;99.90;;;;;;5136720;27;20022;-71
2021/12/06 02:37:50;;;;;;;6.85;1.38;;;22.70;99.90;;;;;;5137217;27;20034;-71
2021/12/06 02:40:24;;;;;;;5.85;1.13;;;22.70;99.90;;;;;;5136995;27;20019;-72
2021/12/06 02:42:51;;;;;;;4.78;1.00;;;22.80;99.90;;;;;;5136987;27;20458;-71
2021/12/06 02:45:21;;;;;;;4.90;0.80;;;22.80;99.90;;;;;;5136911;27;20022;-71
2021/12/06 02:47:53;;;;;;;7.07;1.10;;;22.50;99.90;;;;;;5137309;27;20026;-71
2021/12/06 02:50:23;;;;;;;6.15;1.00;;;22.50;99.90;;;;;;5135452;27;20031;-71
2021/12/06 02:52:51;;;;;;;6.28;0.90;;;22.50;99.90;;;;;;5135880;27;20023;-71
2021/12/06 02:55:35;;;;;;;7.05;1.15;;;22.50;99.90;;;;;;5135462;27;20388;-71
2021/12/06 02:58:32;;;;;;;8.18;1.55;;;22.60;99.90;;;;;;5136991;27;20054;-71
2021/12/06 03:01:01;;;;;;;5.18;1.02;;;22.60;99.90;;;;;;5135161;27;20355;-71
2021/12/06 03:03:29;;;;;;;5.75;1.17;;;22.60;99.90;;;;;;5136690;27;20096;-71
2021/12/06 03:05:56;;;;;;;4.32;0.95;;;22.80;99.90;;;;;;5135145;27;20525;-71
2021/12/06 03:08:49;;;;;;;9.15;1.10;;;22.80;99.90;;;;;;5136192;27;20045;-72
2021/12/06 03:11:21;;;;;;;6.47;1.48;;;22.80;99.90;;;;;;5134767;27;20110;-71
2021/12/06 03:13:49;;;;;;;7.30;1.25;;;22.90;99.90;;;;;;5135016;27;20510;-71
2021/12/06 03:16:16;;;;;;;7.05;1.00;;;22.80;99.90;;;;;;5136143;27;20023;-70
2021/12/06 03:18:45;;;;;;;8.20;1.33;;;22.60;99.90;;;;;;5135648;27;20030;-71
2021/12/06 03:21:15;;;;;;;4.68;0.85;;;22.70;99.90;;;;;;5134359;27;20035;-70
2021/12/06 03:23:43;;;;;;;5.43;1.08;;;22.50;99.90;;;;;;5134102;27;20031;-71
2021/12/06 03:26:10;;;;;;;8.38;1.20;;;22.40;99.90;;;;;;5136133;27;20020;-72
2021/12/06 03:28:43;;;;;;;5.70;1.35;;;22.40;99.90;;;;;;5135369;27;20015;-72
2021/12/06 03:31:12;;;;;;;6.32;1.40;;;22.30;99.90;;;;;;5136052;27;20099;-72
2021/12/06 03:33:42;;;;;;;4.70;0.95;;;22.20;99.90;;;;;;5134702;27;20030;-72
2021/12/06 03:36:11;;;;;;;4.78;0.88;;;21.90;99.90;;;;;;5135973;27;20020;-72
2021/12/06 03:38:40;;;;;;;5.10;0.90;;;21.80;99.90;;;;;;5135497;27;20077;-72
2021/12/06 03:41:10;;;;;;;7.07;1.33;;;21.80;99.90;;;;;;5135927;27;20023;-72
2021/12/06 03:43:38;;;;;;;5.47;1.05;;;21.70;99.90;;;;;;5135553;27;20027;-72
2021/12/06 03:46:05;;;;;;;8.75;1.27;;;21.60;99.90;;;;;;5135433;27;20023;-72
2021/12/06 03:48:33;;;;;;;7.18;1.27;;;21.50;99.90;;;;;;5135598;27;20027;-72
2021/12/06 03:51:01;;;;;;;6.03;1.42;;;21.40;99.90;;;;;;5135762;27;20019;-71
2021/12/06 03:53:30;;;;;;;7.25;1.13;;;21.40;99.90;;;;;;5134654;27;20065;-72
2021/12/06 03:55:58;;;;;;;9.38;1.23;;;21.50;99.90;;;;;;5135656;27;20027;-72
2021/12/06 03:58:27;;;;;;;5.28;1.02;;;21.40;99.90;;;;;;5135328;27;20019;-71
2021/12/06 04:00:55;;;;;;;5.85;0.80;;;21.30;99.90;;;;;;5135433;27;20024;-72
2021/12/06 04:03:25;;;;;;;5.75;1.77;;;21.30;99.90;;;;;;5134983;27;20122;-71
2021/12/06 04:05:53;;;;;;;8.98;1.42;;;21.20;99.90;;;;;;5135319;27;20027;-71
2021/12/06 04:08:21;;;;;;;5.07;1.13;;;21.20;99.90;;;;;;5135138;27;20071;-71
2021/12/06 04:10:48;;;;;;;5.00;0.95;;;21.20;99.90;;;;;;5135155;27;20019;-72
2021/12/06 04:13:16;;;;;;;6.88;1.02;;;21.10;99.90;;;;;;5134332;27;20023;-71
2021/12/06 04:15:44;;;;;;;6.20;1.38;;;21.10;99.90;;;;;;5133581;27;20034;-71
2021/12/06 04:18:13;;;;;;;5.50;1.00;;;21.10;99.90;;;;;;5134763;27;20163;-71
2021/12/06 04:20:40;;;;;;;3.50;0.80;;;21.30;99.90;;;;;;5133686;27;20023;-71
2021/12/06 04:23:09;;;;;;;4.60;1.10;;;21.40;99.90;;;;;;5134791;27;20106;-71
2021/12/06 04:25:38;;;;;;;6.13;0.90;;;21.50;99.90;;;;;;5135175;27;20023;-71
2021/12/06 04:28:07;;;;;;;6.57;0.93;;;21.50;99.90;;;;;;5135123;27;20561;-72
2021/12/06 04:30:38;;;;;;;5.47;0.90;;;21.70;99.90;;;;;;5133232;27;20103;-71
2021/12/06 04:33:07;;;;;;;6.47;1.20;;;21.60;99.90;;;;;;5134727;27;20027;-71
2021/12/06 04:35:37;;;;;;;7.50;1.08;;;21.60;99.90;;;;;;5134978;27;20148;-71
2021/12/06 04:38:06;;;;;;;6.18;1.42;;;21.80;99.90;;;;;;5134434;27;20027;-71
2021/12/06 04:40:33;;;;;;;6.45;1.15;;;21.60;99.90;;;;;;5134616;27;20110;-72
2021/12/06 04:43:01;;;;;;;6.45;1.63;;;21.60;99.90;;;;;;5133437;27;20027;-71
2021/12/06 04:45:28;;;;;;;5.78;1.10;;;21.50;99.90;;;;;;5133259;27;20432;-71
2021/12/06 04:47:56;;;;;;;6.78;1.00;;;21.50;99.90;;;;;;5133115;27;20024;-71
2021/12/06 04:50:27;;;;;;;11.35;1.05;;;21.60;99.90;;;;;;5134361;27;20049;-71
2021/12/06 04:52:57;;;;;;;4.68;1.20;;;21.80;99.90;;;;;;5132863;27;20440;-71
2021/12/06 04:55:47;;;;;;;5.30;1.02;;;21.90;99.90;;;;;;5132566;27;20023;-71
2021/12/06 04:58:28;;;;;;;6.07;0.90;;;22.10;99.90;;;;;;5134128;27;20098;-72
2021/12/06 05:01:09;;;;;;;6.57;0.93;;;22.60;99.90;;;;;;5132763;27;20027;-71
2021/12/06 05:03:39;;;;;;;7.57;1.08;;;22.60;99.90;;;;;;5133518;28;20133;-71
2021/12/06 05:06:09;;;;;;;;;;;22.60;99.90;;;;;;5134336;28;20015;-70
2021/12/06 05:08:41;;;;;;;6.60;1.27;;;22.70;99.90;;;;;;5133743;28;19907;-71
2021/12/06 05:11:10;;;;;;;5.05;0.75;;;23.00;99.90;;;;;;5133650;28;20530;-70
2021/12/06 05:13:39;;;;;;;6.80;0.90;;;23.00;99.90;;;;;;5133972;28;20020;-71
2021/12/06 05:16:06;;;;;;;6.20;1.35;;;23.00;99.90;;;;;;5133144;28;20041;-72
2021/12/06 05:18:34;;;;;;;6.22;1.10;;;22.80;99.90;;;;;;5133857;28;20105;-71
2021/12/06 05:21:02;;;;;;;4.95;1.02;;;22.40;99.90;;;;;;5133650;28;20026;-71
2021/12/06 05:23:29;;;;;;;7.38;1.13;;;22.20;99.90;;;;;;5132636;27;20030;-71
2021/12/06 05:25:56;;;;;;;6.53;1.17;;;22.10;99.90;;;;;;5137373;27;20019;-71
2021/12/06 05:28:27;;;;;;;7.18;1.10;;;22.20;99.90;;;;;;5136253;27;20083;-71
2021/12/06 05:30:56;;;;;;;6.45;1.38;;;22.10;99.90;;;;;;5137721;27;20015;-71
2021/12/06 05:33:31;;;;;;;5.47;1.00;;;22.00;99.90;;;;;;5137829;27;20110;-71
2021/12/06 05:36:02;;;;;;;6.57;1.15;;;22.10;99.90;;;;;;5137781;27;20102;-72
2021/12/06 05:38:30;;;;;;;6.95;1.50;;;22.10;99.90;;;;;;5136429;27;20027;-72
2021/12/06 05:40:58;;;;;;;7.13;1.20;;;22.10;99.90;;;;;;5137757;27;20420;-72
2021/12/06 05:43:26;;;;;;;5.10;0.90;;;21.80;99.90;;;;;;5137640;27;20075;-70
2021/12/06 05:45:54;;;;;;;10.10;1.27;;;21.80;99.90;;;;;;5137541;27;20019;-71
2021/12/06 05:48:21;;;;;;;7.35;1.40;;;21.90;99.90;;;;;;5137401;27;20029;-71
2021/12/06 05:50:50;;;;;;;5.30;1.02;;;21.80;99.90;;;;;;5137351;27;20412;-71
2021/12/06 05:53:18;;;;;;;6.72;1.15;;;21.80;99.90;;;;;;5137256;27;20027;-70
2021/12/06 05:55:46;;;;;;;7.60;1.38;;;21.80;99.90;;;;;;5135867;27;20065;-71
2021/12/06 05:58:16;;;;;;;4.68;0.93;;;21.60;99.90;;;;;;5135752;27;20054;-71
2021/12/06 06:00:44;;;;;;;5.38;1.20;;;21.60;99.90;;;;;;5137387;27;20023;-72
2021/12/06 06:03:11;;;;;;;7.00;1.45;;;21.50;99.90;;;;;;5137172;27;20047;-71
2021/12/06 06:05:40;;;;;;;6.38;1.20;;;21.30;99.90;;;;;;5135988;27;20020;-72
2021/12/06 06:08:07;;;;;;;6.82;1.00;;;21.30;99.90;;;;;;5137020;27;20023;-71
2021/12/06 06:10:35;;;;;;;6.00;1.60;;;21.30;99.90;;;;;;5136127;27;20031;-71
2021/12/06 06:13:05;;;;;;;6.53;1.15;;;21.20;99.90;;;;;;5137635;27;20019;-72
2021/12/06 06:15:33;;;;;;;7.35;1.25;;;21.20;99.90;;;;;;5137840;27;20149;-71
2021/12/06 06:18:01;;;;;;;8.27;1.35;;;21.20;99.90;;;;;;5137677;27;20424;-71
2021/12/06 06:20:39;;;;;;;6.05;1.23;;;21.20;99.90;;;;;;5137437;27;20022;-71
2021/12/06 06:23:07;;;;;;;6.07;1.30;;;21.20;99.90;;;;;;5137730;27;20023;-71
2021/12/06 06:25:35;;;;;;;5.88;1.55;;;21.20;99.90;;;;;;5137382;27;20018;-72
2021/12/06 06:28:04;;;;;;;7.13;1.42;;;21.20;99.90;;;;;;5136838;27;20055;-72
2021/12/06 06:30:32;;;;;;;7.70;1.08;;;21.10;99.90;;;;;;5137817;27;20052;-72
2021/12/06 06:33:00;;;;;;;7.18;1.52;;;21.20;99.90;;;;;;5137379;27;20479;-71
2021/12/06 06:35:28;;;;;;;7.70;1.60;;;21.20;99.90;;;;;;5136792;27;20033;-72
2021/12/06 06:37:55;;;;;;;4.85;0.82;;;21.20;99.90;;;;;;5137230;27;20026;-72
2021/12/06 06:40:23;;;;;;;6.03;1.10;;;21.20;99.90;;;;;;5136585;27;20072;-71
2021/12/06 06:42:50;;;;;;;6.82;1.63;;;21.30;99.90;;;;;;5136256;27;20383;-71
2021/12/06 06:45:21;;;;;;;5.38;0.95;;;21.30;99.90;;;;;;5135201;27;20023;-71
2021/12/06 06:47:49;;;;;;;5.35;1.25;;;21.30;99.90;;;;;;5136612;27;20405;-70
2021/12/06 06:50:17;;;;;;;4.47;1.10;;;21.40;99.90;;;;;;5134873;27;20051;-70
2021/12/06 06:52:45;;;;;;;5.22;0.90;;;21.40;99.90;;;;;;5134912;27;20100;-70
2021/12/06 06:55:13;;;;;;;6.35;1.40;;;21.40;99.90;;;;;;5134993;27;20502;-70
2021/12/06 06:57:41;;;;;;;7.72;1.25;;;21.30;99.90;;;;;;5136471;27;20027;-71
2021/12/06 07:00:17;;;;;;;8.35;1.67;;;21.30;99.90;;;;;;5136469;27;20121;-70
2021/12/06 07:02:45;;;;;;;8.27;1.25;;;21.40;99.90;;;;;;5135004;27;20122;-70
2021/12/06 07:05:13;;;;;;;8.80;1.77;;;21.50;99.90;;;;;;5136176;27;20394;-71
2021/12/06 07:07:41;;;;;;;8.45;2.00;;;21.50;99.90;;;;;;5135988;27;20114;-71
2021/12/06 07:10:09;;;;;;;8.90;1.10;;;21.30;99.90;;;;;;5136000;27;20031;-71
2021/12/06 07:12:44;;;;;;;7.22;1.15;;;21.30;99.90;;;;;;5135873;27;20113;-71
2021/12/06 07:15:14;;;;;;;4.32;1.20;;;21.30;99.90;;;;;;5135779;27;20041;-70
2021/12/06 07:17:42;;;;;;;8.05;1.50;;;21.70;99.90;;;;;;5135774;27;20106;-71
2021/12/06 07:20:12;;;;;;;7.35;1.63;;;21.90;99.90;;;;;;5135647;27;20549;-71
2021/12/06 07:22:40;;;;;;;6.93;0.90;;;22.10;99.90;;;;;;5135901;27;20035;-71
2021/12/06 07:25:09;;;;;;;6.68;1.00;;;22.00;99.90;;;;;;5135249;27;20365;-70
2021/12/06 07:27:37;;;;;;;8.00;1.55;;;21.90;99.90;;;;;;5134796;27;20547;-69
2021/12/06 07:30:06;;;;;;;6.45;1.15;;;22.00;99.90;;;;;;5135024;27;20114;-71
2021/12/06 07:32:34;;;;;;;7.37;1.00;;;22.00;99.90;;;;;;5135945;27;20106;-71
2021/12/06 07:35:02;;;;;;;4.47;0.93;;;21.90;99.90;;;;;;5136353;27;20027;-71
2021/12/06 07:37:29;;;;;;;4.30;0.80;;;21.90;99.90;;;;;;5136114;27;20031;-71
2021/12/06 07:39:57;;;;;;;6.22;1.05;;;21.60;99.90;;;;;;5134680;27;20027;-71
2021/12/06 07:42:24;;;;;;;9.77;1.55;;;21.50;99.90;;;;;;5134609;27;20055;-72
2021/12/06 07:44:52;;;;;;;8.57;1.40;;;21.40;99.90;;;;;;5135879;27;20019;-72
2021/12/06 07:47:20;;;;;;;7.90;0.93;;;21.40;99.90;;;;;;5133688;27;20015;-72
2021/12/06 07:49:47;;;;;;;5.53;1.13;;;21.20;99.90;;;;;;5135914;27;20123;-72
2021/12/06 07:52:15;;;;;;;5.78;1.33;;;21.00;99.90;;;;;;5135804;27;20380;-72
2021/12/06 07:54:42;;;;;;;8.18;1.20;;;21.00;99.90;;;;;;5136053;27;20076;-71
2021/12/06 07:57:10;;;;;;;7.07;0.90;;;20.90;99.90;;;;;;5134333;27;20023;-71
2021/12/06 07:59:39;;;;;;;6.50;1.17;;;20.80;99.90;;;;;;5136467;27;20016;-71
2021/12/06 08:02:08;;;;;;;5.72;1.40;;;20.70;99.90;;;;;;5134900;27;20103;-71
2021/12/06 08:04:37;;;;;;;7.90;0.95;;;20.70;99.90;;;;;;5133362;27;20025;-71
2021/12/06 08:07:04;;;;;;;6.72;1.00;;;20.50;99.90;;;;;;5133560;27;20479;-71
2021/12/06 08:09:32;;;;;;;4.95;1.40;;;20.50;99.90;;;;;;5135335;27;20019;-71
2021/12/06 08:11:59;;;;;;;7.50;1.67;;;20.40;99.90;;;;;;5133773;27;20064;-72
2021/12/06 08:14:27;;;;;;;6.75;0.95;;;20.30;99.90;;;;;;5134025;27;20023;-71
2021/12/06 08:16:54;;;;;;;6.47;1.05;;;20.30;99.90;;;;;;5135724;27;20022;-71
2021/12/06 08:19:22;;;;;;;6.05;1.20;;;20.20;99.90;;;;;;5133285;27;20114;-71
2021/12/06 08:21:49;;;;;;;6.20;0.85;;;20.20;99.90;;;;;;5134842;27;20061;-71
2021/12/06 08:24:17;;;;;;;4.03;1.10;;;20.10;99.90;;;;;;5134737;27;20171;-70
2021/12/06 08:26:47;;;;;;;7.38;1.08;;;20.10;99.90;;;;;;5134868;27;20019;-70
2021/12/06 08:29:16;;;;;;;4.27;1.03;;;19.90;99.90;;;;;;5135050;27;20046;-71
2021/12/06 08:31:45;;;;;;;7.07;0.93;;;20.00;99.90;;;;;;5134584;27;20118;-72
2021/12/06 08:34:13;;;;;;;5.53;1.05;;;19.90;99.90;;;;;;5133326;27;20074;-70
2021/12/06 08:36:41;;;;;;;8.02;1.08;;;19.90;99.90;;;;;;5133133;27;20030;-70
2021/12/06 08:39:08;;;;;;;6.20;1.30;;;19.80;99.90;;;;;;5134196;27;20023;-70
2021/12/06 08:41:36;;;;;;;6.28;1.15;;;19.70;99.90;;;;;;5134358;27;20023;-71
2021/12/06 08:44:04;;;;;;;7.43;1.45;;;19.70;99.90;;;;;;5132496;27;20026;-71
2021/12/06 08:46:36;;;;;;;6.40;1.83;;;19.60;99.90;;;;;;5134034;27;20069;-70
2021/12/06 08:49:05;;;;;;;6.72;1.40;;;19.60;99.90;;;;;;5134142;27;20016;-71
2021/12/06 08:51:44;;;;;;;8.00;1.30;;;19.50;99.90;;;;;;5134098;27;20015;-71
2021/12/06 08:54:14;;;;;;;6.97;1.17;;;19.60;99.90;;;;;;5134053;27;20027;-71
2021/12/06 08:56:43;;;;;;;9.07;1.60;;;19.50;99.90;;;;;;5132439;27;20023;-70
2021/12/06 08:59:10;;;;;;;6.25;1.20;;;19.50;99.90;;;;;;5133600;27;20031;-69
2021/12/06 09:01:39;;;;;;;7.18;1.30;;;19.50;99.90;;;;;;5132370;27;20114;-70
2021/12/06 09:04:11;;;;;;;5.60;1.10;;;19.50;99.90;;;;;;5133890;28;20046;-69
2021/12/06 09:06:44;;;;;;;8.13;1.75;;;19.40;99.90;;;;;;5133967;28;20018;-69
2021/12/06 09:09:13;;;;;;;6.32;1.10;;;19.40;99.90;;;;;;5133737;28;20022;-69
2021/12/06 09:11:42;;;;;;;8.18;1.65;;;19.40;99.90;;;;;;5131934;28;20034;-69
2021/12/06 09:14:10;;;;;;;7.05;1.00;;;19.40;99.90;;;;;;5133704;28;20038;-70
2021/12/06 09:16:38;;;;;;;7.85;1.55;;;19.40;99.90;;;;;;5133535;28;20148;-69
2021/12/06 09:19:07;;;;;;;7.03;1.40;;;19.40;99.90;;;;;;5133418;28;20094;-70
2021/12/06 09:21:37;;;;;;;4.45;0.90;;;19.40;99.90;;;;;;5133590;28;20472;-70
2021/12/06 09:24:07;;;;;;;6.07;1.95;;;19.40;99.90;;;;;;5131983;28;20023;-70
2021/12/06 09:26:35;;;;;;;9.45;1.77;;;19.40;99.90;;;;;;5133515;28;20034;-71
2021/12/06 09:29:03;;;;;;;6.38;1.50;;;19.40;99.90;;;;;;5133536;28;20054;-70
2021/12/06 09:31:31;;;;;;;5.10;1.08;;;19.40;99.90;;;;;;5133391;28;20415;-70
2021/12/06 09:33:58;;;;;;;7.05;1.45;;;19.30;99.90;;;;;;5132076;28;20106;-69
2021/12/06 09:36:27;;;;;;;6.28;1.42;;;19.30;99.90;;;;;;5133464;28;20034;-69
2021/12/06 09:38:55;;;;;;;6.25;1.17;;;19.30;99.90;;;;;;5132274;28;20034;-69
2021/12/06 09:41:26;;;;;;;10.80;2.63;;;19.20;99.90;;;;;;5133335;28;20559;-70
2021/12/06 09:43:57;;;;;;;8.98;2.53;;;19.20;99.90;;;;;;5133359;28;20379;-70
2021/12/06 09:46:25;;;;;;;6.32;1.83;;;19.10;99.90;;;;;;5133471;28;20531;-69
2021/12/06 09:48:53;;;;;;;5.72;1.38;;;19.10;99.90;;;;;;5133282;28;20480;-71
2021/12/06 09:51:26;;;;;;;6.88;1.73;;;19.10;99.90;;;;;;5131777;28;20025;-70
2021/12/06 09:53:56;;;;;;;8.63;1.63;;;19.00;99.90;;;;;;5133078;28;20050;-70
2021/12/06 09:56:33;;;;;;;7.60;1.95;;;19.00;99.90;;;;;;5133469;28;20163;-70
2021/12/06 09:59:05;;;;;;;5.00;1.30;;;19.00;99.90;;;;;;5133362;28;20034;-71
2021/12/06 10:01:36;;;;;;;5.18;1.13;;;18.90;99.90;;;;;;5133133;28;20092;-70
2021/12/06 10:04:07;;;;;;;8.63;1.67;;;18.90;99.90;;;;;;5132608;28;20133;-69
2021/12/06 10:06:35;;;;;;;9.13;1.83;;;18.80;99.90;;;;;;5133722;28;20348;-70
2021/12/06 10:09:05;;;;;;;5.72;1.08;;;18.80;99.90;;;;;;5133337;27;20098;-69
2021/12/06 10:11:33;;;;;;;9.65;1.45;;;18.80;99.90;;;;;;5134620;27;20490;-69
2021/12/06 10:14:01;;;;;;;6.97;1.40;;;18.80;99.90;;;;;;5135595;27;20118;-70
2021/12/06 10:16:28;;;;;;;8.75;1.55;;;18.80;99.90;;;;;;5137198;27;20463;-70
2021/12/06 10:18:56;;;;;;;5.65;1.60;;;18.70;99.90;;;;;;5135492;27;20019;-68
2021/12/06 10:21:27;;;;;;;6.07;1.38;;;18.70;99.90;;;;;;5136752;27;20050;-69
2021/12/06 10:23:58;;;;;;;6.15;1.02;;;18.70;99.90;;;;;;5137111;27;20102;-69
2021/12/06 10:26:30;;;;;;;4.05;1.10;;;18.70;99.90;;;;;;5135225;27;20023;-68
2021/12/06 10:29:07;;;;;;;7.93;1.38;;;18.70;99.90;;;;;;5135133;27;20046;-68
2021/12/06 10:31:41;;;;;;;6.82;1.30;;;18.70;99.90;;;;;;5135339;27;20019;-69
2021/12/06 10:34:09;;;;;;;4.22;1.17;;;18.80;99.90;;;;;;5135521;27;20030;-69
2021/12/06 10:36:36;;;;;;;5.22;1.15;;;18.80;99.90;;;;;;5135332;27;20023;-69
2021/12/06 10:39:09;;;;;;;6.20;1.40;;;18.70;99.90;;;;;;5136635;27;20141;-69
2021/12/06 10:41:42;;;;;;;5.53;1.30;;;18.70;99.90;;;;;;5137397;27;20107;-70
2021/12/06 10:44:14;;;;;;;9.52;1.40;;;18.70;99.90;;;;;;5136697;27;20027;-70
2021/12/06 10:46:53;;;;;;;10.38;1.52;;;18.80;99.90;;;;;;5136963;27;20015;-70
2021/12/06 10:49:27;;;;;;;6.40;1.10;;;18.70;99.90;;;;;;5136909;27;20023;-69
2021/12/06 10:51:55;;;;;;;4.40;1.05;;;18.70;99.90;;;;;;5136484;27;20015;-69
2021/12/06 10:54:48;;;;;;;7.57;1.00;;;18.70;99.90;;;;;;5136557;27;20019;-68
2021/12/06 10:57:12;;;;;;;7.57;1.30;;;18.80;99.90;;;;;;5136062;27;20130;-69
2021/12/06 10:59:40;;;;;;;7.57;2.05;;;18.80;99.90;;;;;;5134809;27;20027;-69
2021/12/06 11:02:11;;;;;;;5.93;0.90;;;18.80;99.90;;;;;;5136051;27;20098;-69
2021/12/06 11:04:40;;;;;;;5.82;1.08;;;18.70;99.90;;;;;;5136377;27;20076;-69
2021/12/06 11:07:11;;;;;;;4.90;1.42;;;18.70;99.90;;;;;;5136749;27;20019;-70
2021/12/06 11:09:43;;;;;;;5.35;1.20;;;18.70;99.90;;;;;;5136268;27;20483;-70
2021/12/06 11:12:18;;;;;;;5.00;0.98;;;18.70;99.90;;;;;;5136168;27;20038;-69
2021/12/06 11:14:50;;;;;;;5.75;1.13;;;18.60;99.90;;;;;;5134743;27;20034;-69
2021/12/06 11:17:20;;;;;;;6.93;1.33;;;18.50;99.90;;;;;;5136075;27;20020;-70
2021/12/06 11:19:51;;;;;;;7.78;1.20;;;18.50;99.90;;;;;;5135069;27;20019;-69
2021/12/06 11:22:25;;;;;;;7.22;1.65;;;18.50;99.90;;;;;;5134570;27;20432;-69
2021/12/06 11:24:54;;;;;;;5.93;1.30;;;18.40;99.90;;;;;;5134743;27;20114;-69
2021/12/06 11:27:32;;;;;;;6.57;1.10;;;18.30;99.90;;;;;;5135916;27;20019;-69
2021/12/06 11:30:11;;;;;;;6.05;1.13;;;18.30;99.90;;;;;;5134496;27;20015;-70
2021/12/06 11:32:45;;;;;;;8.95;1.25;;;18.30;99.90;;;;;;5134637;27;20116;-69
2021/12/06 11:35:19;;;;;;;9.35;1.55;;;18.30;99.90;;;;;;5135702;27;20090;-69
2021/12/06 11:37:49;;;;;;;5.63;1.27;;;18.40;99.90;;;;;;5134321;27;20020;-69
2021/12/06 11:40:22;;;;;;;6.88;1.60;;;18.40;99.90;;;;;;5134185;27;20030;-69
2021/12/06 11:43:08;;;;;;;8.93;1.48;;;18.50;99.90;;;;;;5133782;27;20023;-70
2021/12/06 11:45:52;;;;;;;5.95;1.40;;;18.50;99.90;;;;;;5133955;27;20144;-69
2021/12/06 11:48:27;;;;;;;7.47;1.55;;;18.50;99.90;;;;;;5135351;27;20037;-69
2021/12/06 11:50:59;;;;;;;7.00;1.70;;;18.50;99.90;;;;;;5133660;27;20109;-69
2021/12/06 11:53:41;;;;;;;4.85;1.00;;;18.50;99.90;;;;;;5135926;27;20023;-69
2021/12/06 11:56:32;;;;;;;6.15;1.30;;;18.60;99.90;;;;;;5135884;27;20028;-69
2021/12/06 11:59:06;;;;;;;4.85;1.00;;;18.50;99.90;;;;;;5135849;27;20038;-69
2021/12/06 12:01:37;;;;;;;5.85;1.33;;;18.60;99.90;;;;;;5135790;27;20030;-69
2021/12/06 12:04:21;;;;;;;5.32;1.30;;;18.60;99.90;;;;;;5135069;27;20058;-68
2021/12/06 12:07:01;;;;;;;7.43;1.48;;;18.60;99.90;;;;;;5134608;27;20015;-68
2021/12/06 12:09:34;;;;;;;6.72;0.90;;;18.50;99.90;;;;;;5135425;27;20031;-68
2021/12/06 12:12:06;;;;;;;5.70;1.17;;;18.60;99.90;;;;;;5135588;27;20031;-68
2021/12/06 12:14:42;;;;;;;7.93;1.30;;;18.50;99.90;;;;;;5134387;27;20024;-68
2021/12/06 12:17:18;;;;;;;5.03;1.27;;;18.50;99.90;;;;;;5134412;27;20047;-68
2021/12/06 12:19:47;;;;;;;4.50;1.13;;;18.50;99.90;;;;;;5135704;27;20101;-68
2021/12/06 12:22:15;;;;;;;7.20;1.40;;;18.40;99.90;;;;;;5134266;27;20031;-68
2021/12/06 12:24:47;;;;;;;8.30;1.77;;;18.50;99.90;;;;;;5134256;27;20055;-69
2021/12/06 12:29:45;;;;;;;9.00;1.20;;;18.40;99.90;;;;;;5134777;27;20020;-69
2021/12/06 12:32:13;;;;;;;8.48;1.20;;;18.40;99.90;;;;;;5133048;27;20030;-69
2021/12/06 12:34:45;;;;;;;6.82;1.65;;;18.40;99.90;;;;;;5132717;27;20019;-71
2021/12/06 12:37:16;;;;;;;6.22;1.23;;;18.50;99.90;;;;;;5132989;27;20031;-69
2021/12/06 12:39:58;;;;;;;6.00;1.30;;;18.40;99.90;;;;;;5134531;27;20034;-68
2021/12/06 12:42:27;;;;;;;4.90;1.13;;;18.40;99.90;;;;;;5133520;27;20027;-68
2021/12/06 12:44:56;;;;;;;6.60;1.50;;;18.40;99.90;;;;;;5116505;27;20456;-69
2021/12/06 12:47:26;;;;;;;5.68;1.35;;;18.40;99.90;;;;;;5134481;27;20019;-69
2021/12/06 12:50:08;;;;;;;7.95;1.35;;;18.40;99.90;;;;;;5133023;27;20072;-68
2021/12/06 12:52:40;;;;;;;6.93;1.45;;;18.50;99.90;;;;;;5133195;27;20028;-69
2021/12/06 12:55:29;;;;;;;6.13;1.17;;;18.50;99.90;;;;;;5133875;27;20047;-68
2021/12/06 12:58:13;;;;;;;7.97;1.00;;;18.50;99.90;;;;;;5134058;27;20038;-69
2021/12/06 13:00:59;;;;;;;5.03;1.13;;;18.50;99.90;;;;;;5134251;27;20046;-69
2021/12/06 13:03:35;;;;;;;6.85;1.20;;;18.50;99.90;;;;;;5132437;27;20039;-69
2021/12/06 13:06:30;;;;;;;7.05;1.15;;;18.50;99.90;;;;;;5132563;28;20475;-69
2021/12/06 13:09:04;;;;;;;7.05;1.42;;;18.50;99.90;;;;;;5134002;27;20084;-69
2021/12/06 13:12:00;;;;;;;7.60;1.35;;;18.50;99.90;;;;;;5133202;28;20110;-69
2021/12/06 13:14:42;;;;;;;5.20;1.00;;;18.60;99.90;;;;;;5134024;28;20027;-69
2021/12/06 13:17:16;;;;;;;7.70;1.15;;;18.60;99.90;;;;;;5134082;28;20026;-69
2021/12/06 13:19:53;;;;;;;6.57;1.40;;;18.60;99.90;;;;;;5116694;28;20506;-69